Time;durP1;ratioP1;P1;durP2;ratioP2;P2;SDS_P1;SDS_P2;PMS_P1;PMS_P2;Temp;Humidity;BMP_temperature;BMP_pressure;BME280_temperature;BME280_humidity;BME280_pressure;Samples;Min_cycle;Max_cycle;Signal;HPM_P1;HPM_P2
2023/09/04 00:00:27;;;;;;;1.27;1.17;;;;;;;18.26;nan;-19481.28;4994963;28;20644;-65
2023/09/04 00:02:52;;;;;;;1.35;1.10;;;;;;;18.18;nan;-19156.75;4995770;28;20191;-66
2023/09/04 00:05:18;;;;;;;0.77;0.77;;;;;;;18.40;nan;-19807.31;4995544;28;20231;-64
2023/09/04 00:07:44;;;;;;;0.82;0.82;;;;;;;18.21;nan;-21095.16;5012686;28;20658;-63
2023/09/04 00:10:10;;;;;;;1.48;1.20;;;;;;;18.26;nan;-20450.31;5015413;28;20190;-69
2023/09/04 00:12:36;;;;;;;0.90;0.90;;;;;;;18.46;nan;-19808.44;5015490;28;20192;-63
2023/09/04 00:15:02;;;;;;;1.20;1.20;;;;;;;18.42;nan;-20776.81;4955252;28;20279;-65
2023/09/04 00:17:27;;;;;;;1.20;1.10;;;;;;;18.36;nan;-21421.50;4504169;28;20833;-65
2023/09/04 00:19:52;;;;;;;1.00;1.00;;;;;;;18.35;nan;-22389.75;4797788;28;20547;-65
2023/09/04 00:22:18;;;;;;;1.02;1.00;;;;;;;18.23;nan;-22709.63;5015360;28;20230;-65
2023/09/04 00:24:43;;;;;;;0.93;0.93;;;;;;;18.48;nan;-23038.66;5015177;28;20662;-63
2023/09/04 00:27:08;;;;;;;1.00;1.00;;;;;;;18.43;nan;-23037.50;5015111;28;20196;-65
2023/09/04 00:29:34;;;;;;;0.93;0.93;;;;;;;18.58;nan;-21749.38;5015022;28;20179;-65
2023/09/04 00:32:02;;;;;;;1.38;0.82;;;;;;;18.41;nan;-19807.50;5015125;28;20255;-64
2023/09/04 00:34:27;;;;;;;1.00;1.00;;;;;;;18.75;nan;-18844.31;5014704;28;20223;-64
2023/09/04 00:36:53;;;;;;;1.30;1.17;;;;;;;18.46;nan;-18839.00;5015051;28;20230;-65
2023/09/04 00:39:18;;;;;;;0.80;0.80;;;;;;;18.48;nan;-20132.09;5014714;28;20164;-63
2023/09/04 00:41:46;;;;;;;0.70;0.70;;;;;;;18.78;nan;-20461.44;5014989;28;20179;-63
2023/09/04 00:44:12;;;;;;;0.80;0.80;;;;;;;18.77;nan;-20461.22;5015140;28;20567;-63
2023/09/04 00:46:37;;;;;;;0.70;0.70;;;;;;;18.56;nan;-20456.69;5014315;28;20234;-65
2023/09/04 00:49:03;;;;;;;0.90;0.90;;;;;;;18.74;nan;-20460.69;5014978;28;20652;-63
2023/09/04 00:51:29;;;;;;;1.65;1.13;;;;;;;18.80;nan;-21431.56;5014842;28;20735;-64
2023/09/04 00:53:54;;;;;;;0.70;0.70;;;;;;;18.76;nan;-21430.53;5014665;28;20187;-65
2023/09/04 00:56:20;;;;;;;0.65;0.65;;;;;;;18.95;nan;-20465.09;5014435;28;20172;-63
2023/09/04 00:58:46;;;;;;;0.60;0.60;;;;;;;18.90;nan;-19170.69;5014013;28;20171;-65
2023/09/04 01:01:12;;;;;;;0.70;0.70;;;;;;;18.81;nan;-19815.63;5013237;28;20225;-63
2023/09/04 01:03:37;;;;;;;0.77;0.77;;;;;;;19.03;nan;-20790.16;5014394;28;20604;-66
2023/09/04 01:06:03;;;;;;;0.80;0.80;;;;;;;18.98;nan;-20465.84;5014565;28;20598;-66
2023/09/04 01:08:28;;;;;;;0.88;0.88;;;;;;;18.98;nan;-20142.38;5014428;28;20223;-66
2023/09/04 01:10:57;;;;;;;0.80;0.80;;;;;;;18.93;nan;-20464.66;5012720;28;20191;-63
2023/09/04 01:13:35;;;;;;;0.82;0.82;;;;;;;18.87;nan;-20463.47;5014098;28;20180;-66
2023/09/04 01:16:04;;;;;;;0.90;0.90;;;;;;;18.85;nan;-21109.53;5013945;28;20167;-63
2023/09/04 01:18:30;;;;;;;1.20;1.20;;;;;;;18.83;nan;-21108.97;5014255;28;20168;-66
2023/09/04 01:21:02;;;;;;;0.85;0.85;;;;;;;18.78;nan;-21107.84;5014394;28;20535;-65
2023/09/04 01:23:28;;;;;;;1.23;1.13;;;;;;;18.85;nan;-19493.00;5014264;28;20171;-64
2023/09/04 01:26:02;;;;;;;0.75;0.75;;;;;;;18.72;nan;-20783.44;5014208;28;20179;-64
2023/09/04 01:28:40;;;;;;;0.80;0.80;;;;;;;18.98;nan;-20465.75;5013843;28;20203;-65
2023/09/04 01:31:23;;;;;;;1.17;1.17;;;;;;;18.97;nan;-20465.53;5013835;28;20694;-66
2023/09/04 01:34:04;;;;;;;0.63;0.63;;;;;;;18.76;nan;-20137.88;5014032;28;20160;-65
2023/09/04 01:36:32;;;;;;;1.00;1.00;;;;;;;18.50;nan;-20132.50;5013969;28;20662;-63
2023/09/04 01:38:58;;;;;;;1.00;1.00;;;;;;;18.96;nan;-19818.59;5013684;28;20254;-64
2023/09/04 01:41:24;;;;;;;0.60;0.60;;;;;;;19.03;nan;-20143.44;5012979;28;20606;-65
2023/09/04 01:43:49;;;;;;;0.70;0.70;;;;;;;19.06;nan;-19820.66;5013699;28;20289;-65
2023/09/04 01:46:15;;;;;;;0.70;0.70;;;;;;;19.04;nan;-19820.13;5013848;28;20722;-65
2023/09/04 01:48:40;;;;;;;1.10;1.10;;;;;;;19.03;nan;-19496.59;5013776;28;20198;-62
2023/09/04 01:51:06;;;;;;;0.82;0.82;;;;;;;19.17;nan;-19499.38;5013579;28;20184;-64
2023/09/04 01:53:31;;;;;;;0.70;0.70;;;;;;;19.23;nan;-18853.28;5013413;28;20184;-65
2023/09/04 01:55:58;;;;;;;0.63;0.63;;;;;;;19.27;nan;-18206.78;5013730;28;20230;-62
2023/09/04 01:58:24;;;;;;;0.70;0.70;;;;;;;19.32;nan;-17883.81;5013692;28;20175;-65
2023/09/04 02:00:49;;;;;;;0.80;0.80;;;;;;;19.31;nan;-17883.72;5013624;28;20709;-66
2023/09/04 02:03:15;;;;;;;0.93;0.93;;;;;;;19.37;nan;-17560.94;5013310;28;20181;-64
2023/09/04 02:05:40;;;;;;;0.85;0.85;;;;;;;19.19;nan;-17234.16;5013507;28;20234;-65
2023/09/04 02:08:07;;;;;;;1.92;1.83;;;;;;;19.44;nan;-17238.16;5019377;28;20741;-64
2023/09/04 02:10:35;;;;;;;0.90;0.90;;;;;;;19.42;nan;-17885.63;4781330;28;20825;-65
2023/09/04 02:13:01;;;;;;;1.45;1.35;;;;;;;19.51;nan;-16915.28;4542301;28;20952;-64
2023/09/04 02:15:28;;;;;;;0.88;0.88;;;;;;;19.45;nan;-7831.47;4551072;28;21051;-65
2023/09/04 02:17:53;;;;;;;0.60;0.60;;;;;;;19.55;nan;1278.13;4646391;28;20175;-61
2023/09/04 02:20:19;;;;;;;0.75;0.75;;;;;;;19.42;nan;950.66;5012863;28;20168;-63
2023/09/04 02:22:44;;;;;;;0.40;0.40;;;;;;;19.59;nan;1604.53;5012924;28;20208;-64
2023/09/04 02:25:10;;;;;;;0.77;0.77;;;;;;;19.50;nan;3884.66;5012840;28;20274;-63
2023/09/04 02:27:35;;;;;;;0.43;0.43;;;;;;;19.50;nan;4862.97;5012822;28;20216;-62
2023/09/04 02:30:03;;;;;;;0.80;0.80;;;;;;;19.62;nan;18266.53;5012858;28;20168;-62
2023/09/04 02:32:29;;;;;;;0.70;0.70;;;;;;;19.75;nan;24830.00;5012831;28;20212;-62
2023/09/04 02:34:54;;;;;;;0.70;0.70;;;;;;;19.92;nan;20245.50;5013220;28;20203;-63
2023/09/04 02:37:19;;;;;;;0.57;0.57;;;;;;;19.89;nan;15984.53;5012179;28;20275;-63
2023/09/04 02:39:45;;;;;;;0.65;0.65;;;;;;;19.81;nan;12382.31;5012844;28;20179;-63
2023/09/04 02:42:10;;;;;;;0.52;0.52;;;;;;;19.73;nan;17288.53;5012577;28;20665;-64
2023/09/04 02:44:36;;;;;;;1.00;1.00;;;;;;;19.65;nan;20233.59;5012869;28;20169;-63
2023/09/04 02:47:01;;;;;;;0.50;0.50;;;;;;;19.69;nan;19579.72;5012499;28;20196;-62
2023/09/04 02:49:26;;;;;;;0.70;0.70;;;;;;;19.78;nan;28115.72;5012424;28;20726;-63
2023/09/04 02:51:52;;;;;;;0.70;0.70;;;;;;;19.85;nan;36015.81;5012074;28;20172;-64
2023/09/04 02:54:17;;;;;;;0.85;0.85;;;;;;;19.88;nan;34700.56;5012640;28;20252;-63
2023/09/04 02:56:43;;;;;;;0.50;0.50;;;;;;;19.77;nan;38849.38;5012323;28;20176;-62
2023/09/04 02:59:09;;;;;;;0.50;0.50;;;;;;;19.78;nan;40465.59;5012471;28;20176;-63
2023/09/04 03:01:35;;;;;;;0.70;0.70;;;;;;;19.74;nan;41823.06;5012104;28;20215;-62
2023/09/04 03:04:00;;;;;;;0.70;0.70;;;;;;;19.80;nan;43603.91;5015105;28;20290;-63
2023/09/04 03:06:25;;;;;;;0.90;0.90;;;;;;;20.04;nan;47372.19;5012217;28;20633;-63
2023/09/04 03:08:51;;;;;;;0.60;0.60;;;;;;;20.03;nan;46508.31;5011896;28;20223;-64
2023/09/04 03:11:16;;;;;;;0.60;0.60;;;;;;;19.73;nan;45695.19;5012300;28;20164;-64
2023/09/04 03:13:42;;;;;;;0.70;0.70;;;;;;;19.86;nan;42724.38;5011798;28;20180;-62
2023/09/04 03:16:07;;;;;;;0.60;0.60;;;;;;;19.93;nan;43684.41;5011994;28;20666;-63
2023/09/04 03:18:34;;;;;;;0.50;0.50;;;;;;;19.99;nan;46589.97;5011729;28;20252;-63
2023/09/04 03:21:01;;;;;;;0.57;0.57;;;;;;;19.98;nan;48988.63;5013499;28;20203;-64
2023/09/04 03:23:26;;;;;;;0.88;0.85;;;;;;;19.89;nan;47190.91;5010685;28;20647;-64
2023/09/04 03:25:52;;;;;;;0.50;0.50;;;;;;;19.95;nan;49603.41;5011557;28;20219;-63
2023/09/04 03:28:17;;;;;;;0.85;0.85;;;;;;;19.80;nan;46346.94;5011914;28;20212;-62
2023/09/04 03:30:43;;;;;;;0.40;0.40;;;;;;;19.81;nan;45583.44;5011714;28;20246;-63
2023/09/04 03:33:08;;;;;;;0.50;0.50;;;;;;;19.87;nan;47049.25;5012002;28;20560;-62
2023/09/04 03:35:33;;;;;;;0.60;0.60;;;;;;;19.82;nan;49532.78;5011804;28;20451;-63
2023/09/04 03:37:59;;;;;;;0.80;0.80;;;;;;;19.89;nan;48371.13;5011999;28;20168;-61
2023/09/04 03:40:26;;;;;;;0.57;0.57;;;;;;;20.14;nan;50608.78;5011720;28;20167;-63
2023/09/04 03:42:52;;;;;;;0.63;0.63;;;;;;;20.19;nan;52160.78;5011914;28;20177;-61
2023/09/04 03:45:18;;;;;;;0.65;0.65;;;;;;;19.96;nan;50731.75;5012003;28;20655;-64
2023/09/04 03:47:44;;;;;;;1.02;1.02;;;;;;;20.11;nan;51193.41;5011494;28;20203;-62
2023/09/04 03:50:11;;;;;;;0.60;0.60;;;;;;;20.10;nan;51502.78;5011711;28;20183;-64
2023/09/04 03:52:38;;;;;;;0.55;0.55;;;;;;;19.84;nan;52962.38;5011713;28;20257;-63
2023/09/04 03:55:06;;;;;;;0.70;0.70;;;;;;;20.13;nan;52662.00;5011764;28;20306;-63
2023/09/04 03:57:31;;;;;;;0.70;0.70;;;;;;;20.11;nan;51743.78;5011571;28;20270;-63
2023/09/04 03:59:57;;;;;;;0.60;0.60;;;;;;;19.98;nan;52248.91;5011742;28;20299;-61
2023/09/04 04:02:22;;;;;;;0.65;0.65;;;;;;;19.88;nan;51864.19;5011305;28;20204;-61
2023/09/04 04:04:51;;;;;;;0.60;0.60;;;;;;;20.10;nan;52286.50;5011313;28;20164;-63
2023/09/04 04:07:17;;;;;;;0.85;0.85;;;;;;;20.08;nan;52181.06;5011192;28;20215;-62
2023/09/04 04:09:43;;;;;;;0.50;0.50;;;;;;;20.15;nan;51468.81;5011251;28;20711;-63
2023/09/04 04:12:09;;;;;;;0.77;0.77;;;;;;;20.17;nan;51778.53;5011573;28;20180;-61
2023/09/04 04:14:34;;;;;;;0.60;0.60;;;;;;;20.00;nan;51518.50;5011634;28;20603;-62
2023/09/04 04:17:01;;;;;;;0.60;0.60;;;;;;;20.02;nan;50939.09;5011580;28;20643;-63
2023/09/04 04:19:27;;;;;;;0.63;0.63;;;;;;;20.06;nan;49060.63;5010990;28;20176;-62
2023/09/04 04:21:54;;;;;;;1.05;1.05;;;;;;;20.21;nan;47407.66;5016385;28;20211;-64
2023/09/04 04:24:20;;;;;;;0.80;0.80;;;;;;;20.08;nan;41932.56;5011324;28;20168;-62
2023/09/04 04:26:45;;;;;;;0.52;0.52;;;;;;;19.72;nan;34360.41;5011080;28;20200;-63
2023/09/04 04:29:11;;;;;;;0.50;0.50;;;;;;;19.56;nan;27446.13;5011414;28;20183;-65
2023/09/04 04:31:36;;;;;;;0.63;0.63;;;;;;;19.46;nan;23502.72;5011312;28;20255;-63
2023/09/04 04:34:02;;;;;;;0.65;0.65;;;;;;;19.57;nan;24164.59;5011062;28;20238;-62
2023/09/04 04:36:27;;;;;;;0.70;0.70;;;;;;;19.31;nan;20873.47;5014709;28;20564;-63
2023/09/04 04:38:53;;;;;;;0.50;0.50;;;;;;;19.27;nan;17270.28;5014996;28;20640;-63
2023/09/04 04:41:18;;;;;;;0.50;0.50;;;;;;;19.32;nan;18909.00;5015092;28;20199;-62
2023/09/04 04:43:44;;;;;;;0.40;0.40;;;;;;;19.08;nan;16281.41;5023776;28;20572;-64
2023/09/04 04:46:12;;;;;;;0.60;0.60;;;;;;;19.07;nan;16281.00;5016593;28;20188;-62
2023/09/04 04:48:38;;;;;;;0.80;0.80;;;;;;;19.18;nan;14323.25;5022013;28;20250;-63
2023/09/04 04:51:04;;;;;;;0.63;0.63;;;;;;;18.96;nan;14642.31;5023058;28;20587;-64
2023/09/04 04:53:29;;;;;;;0.73;0.73;;;;;;;18.98;nan;12029.47;5017427;28;20188;-63
2023/09/04 04:55:55;;;;;;;0.82;0.82;;;;;;;19.05;nan;12031.50;5019747;28;20188;-63
2023/09/04 04:58:21;;;;;;;0.60;0.60;;;;;;;18.86;nan;11372.75;5021537;28;20176;-63
2023/09/04 05:00:48;;;;;;;0.80;0.80;;;;;;;19.12;nan;13340.69;5020792;28;20183;-64
2023/09/04 05:03:14;;;;;;;0.65;0.65;;;;;;;19.06;nan;12358.59;5023669;28;20260;-65
2023/09/04 05:05:46;;;;;;;0.45;0.45;;;;;;;19.04;nan;14972.03;5022076;28;20180;-63
2023/09/04 05:08:12;;;;;;;0.60;0.60;;;;;;;19.00;nan;14970.41;5017639;28;20231;-62
2023/09/04 05:10:37;;;;;;;0.60;0.60;;;;;;;19.17;nan;14649.66;5021739;28;20257;-65
2023/09/04 05:13:03;;;;;;;0.60;0.60;;;;;;;18.91;nan;13333.78;5022258;28;20198;-62
2023/09/04 05:15:28;;;;;;;0.50;0.50;;;;;;;18.88;nan;11373.50;5021732;28;20192;-64
2023/09/04 05:17:54;;;;;;;0.60;0.60;;;;;;;18.77;nan;13982.16;5013881;28;20659;-64
2023/09/04 05:20:19;;;;;;;0.55;0.55;;;;;;;18.65;nan;12345.47;5019127;28;20214;-62
2023/09/04 05:22:45;;;;;;;0.90;0.90;;;;;;;18.84;nan;12678.09;5017354;28;20651;-63
2023/09/04 05:25:11;;;;;;;0.80;0.80;;;;;;;18.36;nan;12336.38;5024359;28;20187;-63
2023/09/04 05:27:37;;;;;;;1.02;0.82;;;;;;;18.80;nan;9739.44;5020419;28;20635;-64
2023/09/04 05:30:03;;;;;;;0.70;0.70;;;;;;;18.95;nan;11049.00;5016336;28;20283;-63
2023/09/04 05:32:28;;;;;;;1.67;1.13;;;;;;;18.80;nan;7456.38;5019335;28;20603;-62
2023/09/04 05:34:54;;;;;;;0.77;0.77;;;;;;;18.63;nan;7452.31;5021709;28;20207;-64
2023/09/04 05:37:20;;;;;;;0.80;0.80;;;;;;;18.65;nan;5172.00;5017986;28;20266;-62
2023/09/04 05:39:46;;;;;;;0.73;0.73;;;;;;;18.45;nan;4842.56;5014755;28;20534;-62
2023/09/04 05:42:12;;;;;;;0.65;0.65;;;;;;;18.57;nan;3542.53;5023742;28;20188;-63
2023/09/04 05:44:37;;;;;;;0.70;0.70;;;;;;;18.38;nan;3539.19;5019790;28;20180;-64
2023/09/04 05:47:03;;;;;;;0.70;0.70;;;;;;;18.65;nan;6149.28;5021406;28;20681;-63
2023/09/04 05:49:29;;;;;;;0.77;0.77;;;;;;;18.23;nan;-1014.91;5015118;28;20191;-65
2023/09/04 05:51:55;;;;;;;1.00;1.00;;;;;;;18.02;nan;-6857.63;4997812;28;20638;-64
2023/09/04 05:54:22;;;;;;;0.70;0.70;;;;;;;17.63;nan;-10096.13;5020483;28;20199;-65
2023/09/04 05:56:48;;;;;;;0.80;0.80;;;;;;;17.55;nan;-13330.38;5021105;28;20548;-66
2023/09/04 05:59:17;;;;;;;0.70;0.70;;;;;;;17.53;nan;-11713.31;5014998;28;20187;-67
2023/09/04 06:01:42;;;;;;;1.10;1.10;;;;;;;17.52;nan;-13330.03;5020749;28;20233;-67
2023/09/04 06:04:08;;;;;;;0.82;0.82;;;;;;;17.26;nan;-14296.78;5023017;28;20195;-64
2023/09/04 06:06:33;;;;;;;1.48;1.38;;;;;;;16.90;nan;-16551.94;5020793;28;20179;-65
2023/09/04 06:08:58;;;;;;;0.93;0.93;;;;;;;17.28;nan;-20751.91;5020103;28;20223;-66
2023/09/04 06:11:24;;;;;;;0.77;0.77;;;;;;;17.44;nan;-23012.22;5017320;28;20202;-65
2023/09/04 06:13:49;;;;;;;1.00;1.00;;;;;;;17.48;nan;-24302.09;5021256;28;20246;-66
2023/09/04 06:16:21;;;;;;;0.70;0.70;;;;;;;17.75;nan;-24309.47;5018151;28;20765;-64
2023/09/04 06:18:46;;;;;;;0.95;0.95;;;;;;;17.94;nan;-24316.81;5020945;28;20245;-65
2023/09/04 06:21:12;;;;;;;0.70;0.70;;;;;;;18.03;nan;-24319.19;5019551;28;20200;-64
2023/09/04 06:23:37;;;;;;;1.00;1.00;;;;;;;17.81;nan;-22699.16;5024323;28;20213;-67
2023/09/04 06:26:03;;;;;;;1.10;1.08;;;;;;;17.88;nan;-23345.94;5020792;28;20191;-64
2023/09/04 06:28:29;;;;;;;0.75;0.75;;;;;;;17.93;nan;-23992.22;5019822;28;20207;-67
2023/09/04 06:30:57;;;;;;;1.25;1.13;;;;;;;18.20;nan;-24322.03;5018170;28;20187;-65
2023/09/04 06:33:26;;;;;;;0.98;0.98;;;;;;;18.14;nan;-23675.25;5021687;28;20189;-64
2023/09/04 06:35:52;;;;;;;0.80;0.80;;;;;;;18.40;nan;-23682.22;5021476;28;20558;-65
2023/09/04 06:38:18;;;;;;;0.90;0.90;;;;;;;18.51;nan;-24007.78;5019435;28;20180;-65
2023/09/04 06:40:43;;;;;;;0.75;0.75;;;;;;;18.49;nan;-24007.38;5019886;28;20179;-66
2023/09/04 06:43:09;;;;;;;0.75;0.75;;;;;;;18.79;nan;-20784.88;5021657;28;21002;-67
2023/09/04 06:45:37;;;;;;;0.63;0.63;;;;;;;18.86;nan;-16581.63;5018474;28;21874;-67
2023/09/04 06:48:07;;;;;;;0.40;0.40;;;;;;;19.08;nan;-17232.38;5020473;28;20207;-67
2023/09/04 06:50:32;;;;;;;0.73;0.73;;;;;;;19.04;nan;-19173.31;5020192;28;20198;-65
2023/09/04 06:52:58;;;;;;;0.60;0.60;;;;;;;19.19;nan;-19176.22;5020957;28;20184;-66
2023/09/04 06:55:23;;;;;;;0.55;0.55;;;;;;;19.40;nan;-16913.69;5021498;28;20586;-66
2023/09/04 06:57:49;;;;;;;0.40;0.40;;;;;;;19.50;nan;-17239.06;5020587;28;20179;-63
2023/09/04 07:00:15;;;;;;;0.75;0.75;;;;;;;19.58;nan;-14971.75;5022739;28;20194;-66
2023/09/04 07:02:41;;;;;;;1.05;1.00;;;;;;;19.72;nan;-8481.63;5017908;28;20199;-66
2023/09/04 07:05:09;;;;;;;0.60;0.60;;;;;;;19.73;nan;-6856.63;5022136;28;20179;-65
2023/09/04 07:07:37;;;;;;;0.60;0.60;;;;;;;19.85;nan;-7181.69;5020474;28;20785;-67
2023/09/04 07:10:04;;;;;;;1.45;1.35;;;;;;;19.79;nan;-6206.28;5020615;28;20191;-65
2023/09/04 07:12:31;;;;;;;2.75;1.30;;;;;;;19.89;nan;-5555.59;5019947;28;20194;-65
2023/09/04 07:14:56;;;;;;;0.50;0.50;;;;;;;19.93;nan;-672.06;5020250;28;20183;-63
2023/09/04 07:17:22;;;;;;;0.50;0.50;;;;;;;19.86;nan;1934.44;5022487;28;20183;-66
2023/09/04 07:19:47;;;;;;;0.52;0.52;;;;;;;19.78;nan;-22.03;5019142;28;20180;-63
2023/09/04 07:22:13;;;;;;;1.98;1.63;;;;;;;20.00;nan;-1974.41;5019943;28;20179;-65
2023/09/04 07:24:38;;;;;;;0.50;0.50;;;;;;;19.77;nan;-22.16;5020749;28;20287;-66
2023/09/04 07:27:03;;;;;;;0.82;0.82;;;;;;;19.81;nan;304.06;5020397;28;20207;-62
2023/09/04 07:29:29;;;;;;;0.60;0.60;;;;;;;19.89;nan;4870.59;5019392;28;20238;-65
2023/09/04 07:31:56;;;;;;;0.50;0.50;;;;;;;19.86;nan;4217.44;5020213;28;20567;-65
2023/09/04 07:34:21;;;;;;;0.60;0.60;;;;;;;19.85;nan;4543.50;5021545;28;20182;-66
2023/09/04 07:36:47;;;;;;;0.70;0.70;;;;;;;19.72;nan;1280.56;5021282;28;20188;-62
2023/09/04 07:39:12;;;;;;;0.45;0.45;;;;;;;19.49;nan;-2629.53;5019259;28;20313;-62
2023/09/04 07:41:38;;;;;;;0.60;0.60;;;;;;;19.53;nan;-4255.84;5019638;28;20211;-62
2023/09/04 07:44:04;;;;;;;0.85;0.85;;;;;;;19.56;nan;-9455.66;5018455;28;20255;-65
2023/09/04 07:46:29;;;;;;;0.60;0.60;;;;;;;19.70;nan;-9456.16;5020651;28;20237;-61
2023/09/04 07:48:54;;;;;;;1.25;1.15;;;;;;;19.72;nan;-11079.94;5015501;28;20168;-62
2023/09/04 07:51:20;;;;;;;0.65;0.65;;;;;;;19.73;nan;-11404.66;5021604;28;20171;-62
2023/09/04 07:53:45;;;;;;;0.88;0.88;;;;;;;19.57;nan;-13350.31;5020978;28;20188;-65
2023/09/04 07:56:11;;;;;;;0.50;0.50;;;;;;;19.84;nan;-10431.19;5019691;28;20176;-63
2023/09/04 07:58:39;;;;;;;0.63;0.57;;;;;;;19.92;nan;-8157.00;5014793;28;20691;-62
2023/09/04 08:01:13;;;;;;;0.60;0.60;;;;;;;19.85;nan;-3603.44;5020549;28;20187;-65
2023/09/04 08:03:40;;;;;;;0.80;0.80;;;;;;;19.83;nan;-3928.97;5019166;28;20191;-64
2023/09/04 08:06:05;;;;;;;0.50;0.50;;;;;;;19.94;nan;-4253.88;5018710;28;20622;-62
2023/09/04 08:08:31;;;;;;;0.55;0.55;;;;;;;19.93;nan;-2626.31;5018488;28;20270;-64
2023/09/04 08:10:56;;;;;;;0.80;0.80;;;;;;;20.03;nan;306.78;5022246;28;20176;-62
2023/09/04 08:13:22;;;;;;;0.57;0.57;;;;;;;19.97;nan;3240.69;5025305;28;20175;-63
2023/09/04 08:15:47;;;;;;;0.60;0.60;;;;;;;19.89;nan;8135.56;5024678;28;20191;-62
2023/09/04 08:18:13;;;;;;;1.02;0.93;;;;;;;20.11;nan;9121.59;5020474;28;20215;-62
2023/09/04 08:20:39;;;;;;;0.90;0.90;;;;;;;20.20;nan;12394.84;5023587;28;20193;-64
2023/09/04 08:23:06;;;;;;;0.47;0.47;;;;;;;19.98;nan;15988.16;5022122;28;20184;-62
2023/09/04 08:25:32;;;;;;;0.55;0.55;;;;;;;20.19;nan;14358.56;5024280;28;20221;-65
2023/09/04 08:27:58;;;;;;;0.85;0.85;;;;;;;20.03;nan;17627.81;5024357;28;20211;-60
2023/09/04 08:30:23;;;;;;;0.60;0.60;;;;;;;20.08;nan;16319.50;5022216;28;20557;-62
2023/09/04 08:32:49;;;;;;;0.52;0.52;;;;;;;20.36;nan;18952.91;5022533;28;20569;-62
2023/09/04 08:35:15;;;;;;;0.82;0.82;;;;;;;20.18;nan;14030.78;5025482;28;20191;-61
2023/09/04 08:37:41;;;;;;;2.03;1.80;;;;;;;20.11;nan;9448.34;5023312;28;20199;-62
2023/09/04 08:40:07;;;;;;;0.60;0.60;;;;;;;20.48;nan;9785.56;5021443;28;20192;-62
2023/09/04 08:42:36;;;;;;;0.57;0.57;;;;;;;20.57;nan;13716.44;5021847;28;20208;-65
2023/09/04 08:45:02;;;;;;;0.50;0.50;;;;;;;20.85;nan;14381.38;5021911;28;20175;-63
2023/09/04 08:47:28;;;;;;;0.63;0.63;;;;;;;20.88;nan;17006.03;5019489;28;20199;-65
2023/09/04 08:49:57;;;;;;;0.40;0.40;;;;;;;20.86;nan;30482.59;5022612;28;20255;-64
2023/09/04 08:52:22;;;;;;;0.40;0.40;;;;;;;20.82;nan;32127.34;5016250;28;20695;-64
2023/09/04 08:54:49;;;;;;;0.80;0.80;;;;;;;20.65;nan;30469.63;5020600;28;20184;-63
2023/09/04 08:57:17;;;;;;;0.60;0.60;;;;;;;20.95;nan;17993.25;5019022;28;20172;-64
2023/09/04 08:59:42;;;;;;;0.35;0.35;;;;;;;20.88;nan;8814.69;5017818;28;21133;-64
2023/09/04 09:02:14;;;;;;;0.40;0.40;;;;;;;20.63;nan;6192.22;5025024;28;20186;-63
2023/09/04 09:04:40;;;;;;;0.60;0.60;;;;;;;20.65;nan;5865.94;5020294;28;20180;-64
2023/09/04 09:07:08;;;;;;;0.68;0.68;;;;;;;20.62;nan;16667.84;5022402;28;20226;-62
2023/09/04 09:09:38;;;;;;;0.70;0.70;;;;;;;20.62;nan;12408.03;5019432;28;20184;-64
2023/09/04 09:12:04;;;;;;;0.85;0.85;;;;;;;20.31;nan;7165.50;5020287;28;20266;-63
2023/09/04 09:14:31;;;;;;;0.45;0.45;;;;;;;20.51;nan;13386.84;5018622;28;20195;-62
2023/09/04 09:17:03;;;;;;;0.63;0.63;;;;;;;20.51;nan;22898.41;5014861;28;20782;-63
2023/09/04 09:19:40;;;;;;;0.63;0.63;;;;;;;20.53;nan;28816.91;5019599;28;20266;-63
2023/09/04 09:22:20;;;;;;;0.43;0.43;;;;;;;20.40;nan;26507.22;5018004;28;20187;-65
2023/09/04 09:25:03;;;;;;;0.57;0.57;;;;;;;20.31;nan;34729.81;5017281;28;20572;-64
2023/09/04 09:27:32;;;;;;;0.57;0.57;;;;;;;20.10;nan;31094.28;5012789;28;20207;-64
2023/09/04 09:30:00;;;;;;;0.85;0.85;;;;;;;20.16;nan;27808.94;5018508;28;20243;-63
2023/09/04 09:32:30;;;;;;;0.52;0.52;;;;;;;20.19;nan;29454.59;5018524;28;20198;-63
2023/09/04 09:34:58;;;;;;;0.60;0.60;;;;;;;19.91;nan;28451.91;5016899;28;20171;-64
2023/09/04 09:37:25;;;;;;;0.80;0.80;;;;;;;20.06;nan;23861.22;5022197;28;20183;-64
2023/09/04 09:39:51;;;;;;;0.77;0.77;;;;;;;19.92;nan;20573.16;5017545;28;20250;-64
2023/09/04 09:42:17;;;;;;;0.70;0.70;;;;;;;19.90;nan;19588.94;5020942;28;20711;-62
2023/09/04 09:44:43;;;;;;;0.63;0.63;;;;;;;20.04;nan;22875.44;5021220;28;20690;-64
2023/09/04 09:47:13;;;;;;;0.73;0.73;;;;;;;19.86;nan;21226.47;5021970;28;20207;-63
2023/09/04 09:49:40;;;;;;;0.50;0.50;;;;;;;19.61;nan;20231.56;5020470;28;20274;-62
2023/09/04 09:52:10;;;;;;;0.60;0.60;;;;;;;19.99;nan;19920.75;5019991;28;20187;-65
2023/09/04 09:54:36;;;;;;;0.50;0.50;;;;;;;20.14;nan;20583.41;5022674;28;20180;-64
2023/09/04 09:57:03;;;;;;;1.00;1.00;;;;;;;20.08;nan;18613.31;5020095;28;20541;-63
2023/09/04 09:59:32;;;;;;;0.93;0.93;;;;;;;20.11;nan;24191.84;5013669;28;20172;-59
2023/09/04 10:01:58;;;;;;;1.55;1.05;;;;;;;19.82;nan;20569.06;5016714;28;20184;-62
2023/09/04 10:04:24;;;;;;;0.55;0.55;;;;;;;20.03;nan;21890.53;5020354;28;20191;-62
2023/09/04 10:06:52;;;;;;;0.63;0.63;;;;;;;19.85;nan;22866.09;5018618;28;20192;-61
2023/09/04 10:09:22;;;;;;;0.70;0.70;;;;;;;20.01;nan;23202.16;4995860;28;20671;-62
2023/09/04 10:11:58;;;;;;;0.75;0.75;;;;;;;20.00;nan;20905.00;5018848;28;20188;-62
2023/09/04 10:14:32;;;;;;;0.63;0.63;;;;;;;20.09;nan;20580.91;5005051;28;20171;-64
2023/09/04 10:17:01;;;;;;;0.90;0.90;;;;;;;19.81;nan;17291.75;5017483;28;20179;-62
2023/09/04 10:19:32;;;;;;;0.57;0.57;;;;;;;19.97;nan;19592.03;5011339;28;20187;-64
2023/09/04 10:22:07;;;;;;;0.70;0.70;;;;;;;19.88;nan;21883.13;5005567;28;20191;-62
2023/09/04 10:24:45;;;;;;;0.70;0.70;;;;;;;19.87;nan;21554.91;5016815;28;20570;-65
2023/09/04 10:27:11;;;;;;;0.90;0.90;;;;;;;19.77;nan;21878.38;5018954;28;20215;-64
2023/09/04 10:29:51;;;;;;;0.60;0.60;;;;;;;19.59;nan;21541.94;5019511;28;20188;-61
2023/09/04 10:32:17;;;;;;;0.80;0.80;;;;;;;19.46;nan;20552.47;5020363;28;20171;-62
2023/09/04 10:34:43;;;;;;;0.57;0.57;;;;;;;19.15;nan;23487.34;5015532;28;20264;-62
2023/09/04 10:37:12;;;;;;;0.70;0.70;;;;;;;19.32;nan;22512.44;5020666;28;20610;-62
2023/09/04 10:39:39;;;;;;;0.52;0.52;;;;;;;19.27;nan;20216.72;5019769;28;20646;-62
2023/09/04 10:42:06;;;;;;;0.70;0.70;;;;;;;19.26;nan;19561.31;5021469;28;20731;-64
2023/09/04 10:44:49;;;;;;;0.40;0.40;;;;;;;19.21;nan;17267.66;5017813;28;20184;-64
2023/09/04 10:47:15;;;;;;;0.90;0.90;;;;;;;19.12;nan;19227.78;5012385;28;20203;-64
2023/09/04 10:49:42;;;;;;;0.65;0.65;;;;;;;19.02;nan;20860.34;5017885;28;20199;-61
2023/09/04 10:52:08;;;;;;;0.45;0.45;;;;;;;19.06;nan;20862.19;5018813;28;20187;-64
2023/09/04 10:54:34;;;;;;;0.75;0.75;;;;;;;19.26;nan;18251.72;5015100;28;20236;-62
2023/09/04 10:57:01;;;;;;;1.23;1.13;;;;;;;19.37;nan;17928.72;5021281;28;20722;-62
2023/09/04 10:59:27;;;;;;;0.70;0.70;;;;;;;19.01;nan;15951.53;5015301;28;20180;-62
2023/09/04 11:01:53;;;;;;;1.05;0.98;;;;;;;19.09;nan;16935.94;5013499;28;20666;-62
2023/09/04 11:04:45;;;;;;;1.17;0.77;;;;;;;19.09;nan;17917.41;5020135;28;20177;-64
2023/09/04 11:07:20;;;;;;;0.60;0.60;;;;;;;19.06;nan;16934.75;5013614;28;20218;-62
2023/09/04 11:09:47;;;;;;;0.90;0.90;;;;;;;18.92;nan;13660.81;5018136;28;20237;-62
2023/09/04 11:12:20;;;;;;;0.75;0.75;;;;;;;19.05;nan;11704.94;5017580;28;20652;-63
2023/09/04 11:14:47;;;;;;;0.75;0.75;;;;;;;18.92;nan;11048.25;5014159;28;20717;-63
2023/09/04 11:17:16;;;;;;;0.70;0.70;;;;;;;18.92;nan;9090.06;5020594;28;20179;-64
2023/09/04 11:19:43;;;;;;;0.90;0.90;;;;;;;18.66;nan;8104.97;5012000;28;20180;-63
2023/09/04 11:22:18;;;;;;;1.67;1.58;;;;;;;18.83;nan;9087.66;5016594;28;20258;-64
2023/09/04 11:24:44;;;;;;;0.65;0.65;;;;;;;18.87;nan;9415.09;5013261;28;20195;-62
2023/09/04 11:27:10;;;;;;;0.60;0.60;;;;;;;18.74;nan;9411.44;5016291;28;20203;-62
2023/09/04 11:29:35;;;;;;;0.80;0.80;;;;;;;18.63;nan;7126.50;5011788;28;20184;-61
2023/09/04 11:32:01;;;;;;;0.60;0.60;;;;;;;18.74;nan;11369.09;5014046;28;20183;-63
2023/09/04 11:34:28;;;;;;;0.70;0.70;;;;;;;18.77;nan;9738.47;5013953;28;20535;-62
2023/09/04 11:36:53;;;;;;;0.77;0.77;;;;;;;18.53;nan;7124.28;5019886;28;20659;-62
2023/09/04 11:39:19;;;;;;;0.50;0.50;;;;;;;18.76;nan;9085.81;5019469;28;20194;-62
2023/09/04 11:41:46;;;;;;;0.77;0.77;;;;;;;18.60;nan;9407.63;5015379;28;20577;-62
2023/09/04 11:44:12;;;;;;;0.80;0.80;;;;;;;18.48;nan;6797.19;5017434;28;20180;-64
2023/09/04 11:46:38;;;;;;;0.63;0.63;;;;;;;18.14;nan;5487.25;5014221;28;20188;-63